Time;durP1;ratioP1;P1;durP2;ratioP2;P2;SDS_P1;SDS_P2;PMS_P1;PMS_P2;Temp;Humidity;BMP_temperature;BMP_pressure;BME280_temperature;BME280_humidity;BME280_pressure;Samples;Min_cycle;Max_cycle;Signal;HPM_P1;HPM_P2
2022/11/18 00:01:22;;;;;;;0.13;0.13;;;;;;;10.15;92.80;93802.53;4387155;32;20192;-59
2022/11/18 00:03:50;;;;;;;0.20;0.20;;;;;;;10.07;93.07;93800.72;4364865;32;20261;-60
2022/11/18 00:06:22;;;;;;;0.00;0.00;;;;;;;10.14;93.05;93800.19;4371650;32;20240;-59
2022/11/18 00:08:47;;;;;;;0.20;0.20;;;;;;;10.39;91.45;93795.75;4361418;32;20243;-59
2022/11/18 00:14:17;;;;;;;0.00;0.00;;;;;;;10.15;92.17;93789.28;4374217;32;20208;-63
2022/11/18 00:14:17;;;;;;;0.10;0.10;;;;;;;10.00;93.20;93792.53;4367090;32;20245;-59
2022/11/18 00:16:43;;;;;;;0.10;0.10;;;;;;;9.90;93.98;93783.13;4384529;32;20207;-63
2022/11/18 00:19:08;;;;;;;0.20;0.20;;;;;;;9.82;94.23;93780.56;4364099;32;20183;-59
2022/11/18 00:21:38;;;;;;;0.00;0.00;;;;;;;9.99;93.64;93767.13;4372983;32;20192;-59
2022/11/18 00:24:03;;;;;;;1.73;0.40;;;;;;;9.91;93.96;93781.25;4359069;32;20284;-60
2022/11/18 00:26:29;;;;;;;0.07;0.07;;;;;;;9.75;94.44;93780.31;4341625;32;20196;-59
2022/11/18 00:28:54;;;;;;;0.00;0.00;;;;;;;9.98;93.49;93773.53;4374121;32;20188;-59
2022/11/18 00:31:21;;;;;;;0.17;0.10;;;;;;;9.81;94.36;93774.47;4380823;32;20184;-59
2022/11/18 00:33:46;;;;;;;0.10;0.10;;;;;;;9.84;93.98;93759.81;4348465;32;20235;-59
2022/11/18 00:36:12;;;;;;;0.03;0.03;;;;;;;9.79;94.23;93765.31;4381412;32;20234;-59
2022/11/18 00:38:38;;;;;;;0.00;0.00;;;;;;;9.83;94.58;93766.22;4383432;32;20195;-59
2022/11/18 00:41:09;;;;;;;0.00;0.00;;;;;;;9.76;95.13;93766.00;4342560;32;20267;-59
2022/11/18 00:43:36;;;;;;;0.00;0.00;;;;;;;9.94;94.16;93762.06;4352301;32;20197;-59
2022/11/18 00:46:05;;;;;;;0.00;0.00;;;;;;;9.82;93.86;93759.37;4374591;32;21716;-60
2022/11/18 00:48:31;;;;;;;0.00;0.00;;;;;;;9.92;93.93;93765.03;4378731;32;20263;-60
2022/11/18 00:51:17;;;;;;;0.00;0.00;;;;;;;9.66;94.63;93764.50;4352065;32;20190;-59
2022/11/18 00:53:44;;;;;;;0.00;0.00;;;;;;;9.86;94.07;93754.97;4362734;32;20193;-62
2022/11/18 00:56:09;;;;;;;0.10;0.10;;;;;;;9.79;94.02;93750.19;4386181;32;20196;-59
2022/11/18 00:58:37;;;;;;;0.00;0.00;;;;;;;9.81;93.77;93752.53;4374573;32;20218;-59
2022/11/18 01:01:05;;;;;;;0.10;0.10;;;;;;;9.72;94.06;93757.91;4338262;32;20229;-59
2022/11/18 01:03:32;;;;;;;0.03;0.03;;;;;;;9.61;94.63;93749.59;4341893;32;20196;-59
2022/11/18 01:05:57;;;;;;;0.20;0.10;;;;;;;9.72;94.07;93743.91;4324357;32;20197;-59
2022/11/18 01:08:24;;;;;;;0.00;0.00;;;;;;;9.80;93.75;93743.81;4373628;32;20208;-59
2022/11/18 01:10:52;;;;;;;0.10;0.10;;;;;;;9.67;94.17;93746.75;4390121;32;20189;-59
2022/11/18 01:13:22;;;;;;;0.10;0.10;;;;;;;9.68;94.13;93750.94;4344797;32;20201;-59
2022/11/18 01:15:56;;;;;;;0.17;0.10;;;;;;;9.74;94.50;93739.06;4364658;32;20248;-59
2022/11/18 01:18:25;;;;;;;0.27;0.27;;;;;;;9.70;94.13;93735.50;4372155;32;20193;-59
2022/11/18 01:20:52;;;;;;;0.00;0.00;;;;;;;9.56;95.29;93735.81;4379686;32;20235;-59
2022/11/18 01:23:20;;;;;;;0.20;0.00;;;;;;;9.49;95.63;93738.19;4341217;32;20200;-59
2022/11/18 01:25:48;;;;;;;0.00;0.00;;;;;;;9.41;96.25;93731.88;4379218;32;20213;-60
2022/11/18 01:28:15;;;;;;;0.00;0.00;;;;;;;9.55;95.75;93734.25;4363406;32;20211;-62
2022/11/18 01:30:41;;;;;;;0.10;0.10;;;;;;;9.79;94.67;93728.25;4330023;32;20203;-59
2022/11/18 01:33:08;;;;;;;0.10;0.10;;;;;;;9.49;95.36;93720.44;4368576;32;20185;-59
2022/11/18 01:35:40;;;;;;;0.00;0.00;;;;;;;9.72;95.20;93718.19;4351736;32;20269;-59
2022/11/18 01:38:09;;;;;;;0.30;0.20;;;;;;;9.76;94.49;93715.69;4373474;32;20266;-59
2022/11/18 01:40:35;;;;;;;0.20;0.20;;;;;;;9.56;95.17;93702.12;4377296;32;20277;-59
2022/11/18 01:43:01;;;;;;;0.10;0.10;;;;;;;9.68;95.33;93705.94;4356602;32;20219;-59
2022/11/18 01:45:36;;;;;;;0.10;0.10;;;;;;;9.68;94.57;93701.41;4360727;32;20260;-59
2022/11/18 01:48:12;;;;;;;0.20;0.20;;;;;;;9.66;95.21;93700.97;4352054;32;20187;-59
2022/11/18 01:50:46;;;;;;;0.30;0.30;;;;;;;9.65;95.29;93705.50;4380331;32;20287;-59
2022/11/18 01:53:20;;;;;;;0.10;0.10;;;;;;;9.71;95.27;93714.00;4341958;32;20197;-59
2022/11/18 01:55:49;;;;;;;0.10;0.10;;;;;;;9.63;95.18;93712.19;4344027;32;20195;-60
2022/11/18 01:58:21;;;;;;;0.87;0.20;;;;;;;9.52;95.80;93719.03;4363003;32;20259;-59
2022/11/18 02:00:46;;;;;;;0.00;0.00;;;;;;;9.55;95.51;93729.72;4352155;32;20247;-62
2022/11/18 02:03:13;;;;;;;0.13;0.13;;;;;;;9.40;96.54;93732.97;4358220;32;20193;-59
2022/11/18 02:05:41;;;;;;;0.20;0.20;;;;;;;9.40;96.69;93732.97;4366597;32;20177;-59
2022/11/18 02:08:06;;;;;;;0.00;0.00;;;;;;;9.43;96.74;93740.25;4373225;32;20203;-59
2022/11/18 02:10:33;;;;;;;0.23;0.23;;;;;;;9.69;95.85;93736.59;4372467;32;20200;-59
2022/11/18 02:12:59;;;;;;;0.20;0.20;;;;;;;9.35;96.38;93738.47;4378898;32;20189;-59
2022/11/18 02:15:34;;;;;;;0.20;0.20;;;;;;;9.51;96.48;93743.94;4390206;32;20259;-59
2022/11/18 02:18:21;;;;;;;0.47;0.20;;;;;;;9.30;96.89;93744.72;4349215;32;20193;-60
2022/11/18 02:20:50;;;;;;;0.10;0.10;;;;;;;9.17;97.91;93739.69;4364385;32;20220;-59
2022/11/18 02:23:38;;;;;;;0.00;0.00;;;;;;;9.36;97.82;93736.56;4373651;32;20180;-59
2022/11/18 02:26:31;;;;;;;0.10;0.10;;;;;;;9.52;96.99;93740.97;4382872;32;20320;-59
2022/11/18 02:29:34;;;;;;;0.20;0.20;;;;;;;9.37;97.21;93738.91;4335510;32;20228;-60
2022/11/18 02:32:11;;;;;;;0.23;0.23;;;;;;;9.43;97.43;93737.63;4329560;32;20188;-59
2022/11/18 02:34:53;;;;;;;0.30;0.30;;;;;;;9.48;96.94;93734.78;4356536;32;20260;-59
2022/11/18 02:37:46;;;;;;;0.37;0.30;;;;;;;9.68;96.14;93730.53;4359142;32;20192;-58
2022/11/18 02:40:39;;;;;;;0.00;0.00;;;;;;;9.59;96.21;93730.59;4374714;32;20195;-58
2022/11/18 02:43:12;;;;;;;0.20;0.20;;;;;;;9.45;96.94;93724.84;4390156;32;20184;-59
2022/11/18 02:45:43;;;;;;;0.70;0.40;;;;;;;9.27;97.59;93726.84;4381403;32;20185;-59
2022/11/18 02:48:12;;;;;;;0.47;0.30;;;;;;;9.35;97.66;93729.75;4371308;32;20184;-59
2022/11/18 02:50:41;;;;;;;0.20;0.20;;;;;;;9.33;97.64;93724.78;4382423;32;20183;-58
2022/11/18 02:53:10;;;;;;;0.00;0.00;;;;;;;9.30;98.04;93726.22;4347797;32;20189;-59
2022/11/18 02:55:39;;;;;;;0.00;0.00;;;;;;;9.32;97.70;93730.41;4385086;32;20226;-59
2022/11/18 02:58:05;;;;;;;0.20;0.20;;;;;;;9.35;97.79;93725.25;4366057;32;20304;-59
2022/11/18 03:00:38;;;;;;;0.20;0.20;;;;;;;9.41;97.97;93721.28;4360185;32;20199;-59
2022/11/18 03:03:33;;;;;;;0.00;0.00;;;;;;;9.52;97.26;93725.09;4377663;32;20282;-59
2022/11/18 03:06:20;;;;;;;0.10;0.10;;;;;;;9.51;97.10;93734.13;4375046;32;20195;-59
2022/11/18 03:08:58;;;;;;;0.13;0.13;;;;;;;9.27;98.09;93736.66;4363370;32;20188;-59
2022/11/18 03:11:28;;;;;;;0.20;0.20;;;;;;;9.30;97.81;93728.09;4346697;32;20185;-59
2022/11/18 03:14:07;;;;;;;0.10;0.10;;;;;;;9.31;97.80;93732.28;4353092;32;20199;-59
2022/11/18 03:16:40;;;;;;;0.23;0.23;;;;;;;9.19;98.40;93727.69;4361236;32;22556;-59
2022/11/18 03:19:41;;;;;;;0.00;0.00;;;;;;;9.16;98.51;93720.41;4353813;32;20181;-59
2022/11/18 03:22:20;;;;;;;0.00;0.00;;;;;;;9.07;97.94;93722.34;4352330;32;20192;-59
2022/11/18 03:25:35;;;;;;;0.27;0.27;;;;;;;8.94;98.96;93726.78;4376206;32;20306;-59
2022/11/18 03:28:30;;;;;;;1.30;0.60;;;;;;;9.03;99.04;93724.09;4382928;32;20265;-59
2022/11/18 03:31:39;;;;;;;0.00;0.00;;;;;;;9.09;99.16;93720.16;4347123;32;20287;-59
2022/11/18 03:34:11;;;;;;;0.00;0.00;;;;;;;9.06;99.18;93720.78;4358913;32;20310;-59
2022/11/18 03:36:40;;;;;;;0.00;0.00;;;;;;;9.03;99.31;93723.31;4363230;32;20290;-59
2022/11/18 03:39:11;;;;;;;0.00;0.00;;;;;;;8.91;99.93;93737.25;4361832;32;20194;-59
2022/11/18 03:41:43;;;;;;;0.10;0.10;;;;;;;8.75;100.00;93737.00;4378555;32;20300;-59
2022/11/18 03:44:17;;;;;;;0.00;0.00;;;;;;;8.83;100.00;93744.13;4366548;32;20298;-59
2022/11/18 03:46:49;;;;;;;0.07;0.07;;;;;;;8.76;100.00;93746.50;4363564;32;20346;-59
2022/11/18 03:49:35;;;;;;;0.27;0.27;;;;;;;8.79;100.00;93750.37;4361581;32;20281;-60
2022/11/18 03:52:13;;;;;;;0.03;0.03;;;;;;;9.01;100.00;93757.22;4362583;32;20316;-59
2022/11/18 03:54:40;;;;;;;0.00;0.00;;;;;;;8.91;100.00;93759.19;4365445;32;20359;-59
2022/11/18 03:57:15;;;;;;;0.10;0.10;;;;;;;8.79;100.00;93767.00;4349130;32;20430;-59
2022/11/18 04:00:06;;;;;;;0.00;0.00;;;;;;;8.74;100.00;93769.84;4370911;32;20276;-59
2022/11/18 04:02:34;;;;;;;0.10;0.10;;;;;;;8.73;100.00;93768.28;4369328;32;20276;-59
2022/11/18 04:05:02;;;;;;;0.00;0.00;;;;;;;8.85;100.00;93781.59;4373040;32;20280;-59
2022/11/18 04:07:56;;;;;;;0.00;0.00;;;;;;;8.87;100.00;93786.56;4363175;32;20324;-59
2022/11/18 04:10:39;;;;;;;0.77;0.17;;;;;;;8.68;100.00;93797.56;4368483;32;20311;-58
2022/11/18 04:13:22;;;;;;;0.00;0.00;;;;;;;8.84;100.00;93803.84;4358119;32;20204;-59
2022/11/18 04:15:48;;;;;;;0.00;0.00;;;;;;;8.69;100.00;93788.53;4347602;32;20323;-59
2022/11/18 04:18:16;;;;;;;0.10;0.10;;;;;;;8.79;100.00;93798.72;4349711;32;20304;-63
2022/11/18 04:20:41;;;;;;;0.00;0.00;;;;;;;8.80;100.00;93788.94;4364377;32;20293;-59
2022/11/18 04:23:08;;;;;;;0.00;0.00;;;;;;;8.74;100.00;93784.91;4378210;32;20203;-59
2022/11/18 04:25:34;;;;;;;0.00;0.00;;;;;;;8.81;100.00;93788.63;4375024;32;20453;-59
2022/11/18 04:28:01;;;;;;;0.00;0.00;;;;;;;8.86;100.00;93772.56;4340162;32;20197;-59
2022/11/18 04:30:28;;;;;;;0.10;0.00;;;;;;;8.78;100.00;93786.59;4375655;32;20237;-59
2022/11/18 04:32:53;;;;;;;0.00;0.00;;;;;;;8.75;100.00;93783.81;4351629;32;20207;-60
2022/11/18 04:35:19;;;;;;;0.10;0.10;;;;;;;8.74;100.00;93782.28;4356462;32;20278;-59
2022/11/18 04:37:44;;;;;;;0.00;0.00;;;;;;;8.69;100.00;93788.53;4348805;32;20264;-59
2022/11/18 04:40:12;;;;;;;0.00;0.00;;;;;;;8.67;100.00;93784.66;4377166;32;20199;-60
2022/11/18 04:42:39;;;;;;;0.10;0.10;;;;;;;8.68;100.00;93779.06;4373900;32;20225;-59
2022/11/18 04:45:06;;;;;;;0.00;0.00;;;;;;;8.86;100.00;93783.16;4381508;32;20371;-59
2022/11/18 04:47:31;;;;;;;1.70;0.30;;;;;;;8.91;100.00;93777.69;4344949;32;20276;-59
2022/11/18 04:49:57;;;;;;;0.10;0.10;;;;;;;8.93;100.00;93775.50;4364561;32;20342;-59
2022/11/18 04:52:27;;;;;;;0.00;0.00;;;;;;;9.08;100.00;93771.50;4364574;32;20199;-59
2022/11/18 04:54:52;;;;;;;0.00;0.00;;;;;;;9.25;99.09;93778.53;4373969;32;20291;-59
2022/11/18 04:57:18;;;;;;;0.10;0.10;;;;;;;9.09;99.18;93772.28;4384358;32;20276;-59
2022/11/18 04:59:44;;;;;;;0.00;0.00;;;;;;;9.03;99.17;93771.69;4374052;32;20204;-61
2022/11/18 05:02:20;;;;;;;0.00;0.00;;;;;;;9.10;99.29;93777.25;4390999;32;20224;-59
2022/11/18 05:04:46;;;;;;;0.00;0.00;;;;;;;9.09;98.96;93778.34;4350656;32;20194;-59
2022/11/18 05:07:14;;;;;;;0.00;0.00;;;;;;;9.01;98.66;93765.94;4375280;32;20188;-59
2022/11/18 05:09:41;;;;;;;0.00;0.00;;;;;;;9.17;98.61;93771.44;4385358;32;20272;-59
2022/11/18 05:14:55;;;;;;;0.03;0.03;;;;;;;9.13;98.21;93770.53;4379371;32;20202;-59
2022/11/18 05:17:24;;;;;;;0.07;0.07;;;;;;;9.05;98.16;93774.78;4336070;32;20289;-60
2022/11/18 05:19:51;;;;;;;0.00;0.00;;;;;;;8.99;98.76;93777.94;4362599;32;20338;-59
2022/11/18 05:22:17;;;;;;;0.00;0.00;;;;;;;9.00;98.18;93774.19;4355133;32;20239;-59
2022/11/18 05:24:43;;;;;;;0.03;0.03;;;;;;;9.17;97.33;93777.50;4372095;32;20289;-59
2022/11/18 05:27:10;;;;;;;0.00;0.00;;;;;;;9.06;97.48;93771.06;4348928;32;20193;-59
2022/11/18 05:29:37;;;;;;;0.00;0.00;;;;;;;8.94;97.61;93778.88;4351045;32;20278;-60
2022/11/18 05:32:03;;;;;;;0.00;0.00;;;;;;;8.90;97.55;93764.78;4352977;32;20210;-59
2022/11/18 05:34:29;;;;;;;0.00;0.00;;;;;;;9.15;96.78;93770.97;4344311;32;20207;-60
2022/11/18 05:36:57;;;;;;;0.00;0.00;;;;;;;9.11;96.43;93773.50;4378560;32;20285;-59
2022/11/18 05:39:23;;;;;;;0.10;0.10;;;;;;;8.83;97.40;93772.44;4354620;32;20214;-59
2022/11/18 05:44:36;;;;;;;0.20;0.20;;;;;;;8.92;96.17;93773.94;4379353;32;20374;-59
2022/11/18 05:47:02;;;;;;;0.03;0.03;;;;;;;8.92;96.05;93778.47;4377152;32;20352;-59
2022/11/18 05:49:29;;;;;;;0.20;0.20;;;;;;;8.90;96.27;93776.13;4362696;32;20276;-59
2022/11/18 05:51:54;;;;;;;0.00;0.00;;;;;;;8.72;96.44;93777.34;4367316;32;20276;-60
2022/11/18 05:54:20;;;;;;;0.10;0.10;;;;;;;8.66;96.88;93775.19;4353289;32;20284;-59
2022/11/18 05:56:48;;;;;;;0.00;0.00;;;;;;;8.61;96.99;93784.06;4331776;32;20267;-59
2022/11/18 05:59:15;;;;;;;0.20;0.10;;;;;;;8.51;96.29;93789.72;4353189;32;20276;-60
2022/11/18 06:01:48;;;;;;;0.00;0.00;;;;;;;8.62;96.78;93793.53;4375359;32;20273;-60
2022/11/18 06:04:28;;;;;;;0.00;0.00;;;;;;;8.65;96.46;93790.25;4364835;32;20366;-63
2022/11/18 06:06:59;;;;;;;0.00;0.00;;;;;;;8.42;96.60;93799.53;4371015;32;20284;-59
2022/11/18 06:09:31;;;;;;;0.00;0.00;;;;;;;8.51;96.27;93798.41;4375467;32;20284;-59
2022/11/18 06:12:03;;;;;;;0.10;0.10;;;;;;;8.66;96.07;93793.69;4373486;32;20506;-59
2022/11/18 06:14:55;;;;;;;0.00;0.00;;;;;;;8.56;95.55;93792.16;4339452;32;20349;-59
2022/11/18 06:17:27;;;;;;;0.00;0.00;;;;;;;8.44;95.15;93800.00;4366307;32;20307;-60
2022/11/18 06:19:55;;;;;;;0.00;0.00;;;;;;;8.44;95.22;93798.13;4365450;32;20319;-59
2022/11/18 06:22:21;;;;;;;0.10;0.10;;;;;;;8.40;96.07;93807.78;4376253;32;20284;-59
2022/11/18 06:24:48;;;;;;;0.00;0.00;;;;;;;8.35;96.43;93810.56;4363071;32;20347;-58
2022/11/18 06:27:14;;;;;;;0.00;0.00;;;;;;;8.30;96.42;93807.31;4378733;32;20359;-59
2022/11/18 06:29:40;;;;;;;0.00;0.00;;;;;;;8.43;96.06;93819.56;4373410;32;20280;-59
2022/11/18 06:32:06;;;;;;;0.00;0.00;;;;;;;8.40;95.95;93807.00;4361322;32;20307;-59
2022/11/18 06:34:33;;;;;;;0.00;0.00;;;;;;;8.38;95.86;93830.31;4367656;32;20208;-58
2022/11/18 06:36:59;;;;;;;0.00;0.00;;;;;;;8.37;96.08;93828.75;4374665;32;20281;-59
2022/11/18 06:39:24;;;;;;;0.00;0.00;;;;;;;8.50;95.44;93841.00;4339941;32;20290;-59
2022/11/18 06:41:53;;;;;;;0.00;0.00;;;;;;;8.43;95.78;93843.37;4362478;32;20173;-58
2022/11/18 06:44:19;;;;;;;0.00;0.00;;;;;;;8.32;96.75;93858.75;4373659;32;20294;-59
2022/11/18 06:46:58;;;;;;;0.40;0.40;;;;;;;8.33;97.47;93856.91;4358984;32;20276;-51
2022/11/18 06:49:26;;;;;;;0.47;0.23;;;;;;;10.02;100.00;93851.25;4366178;32;20211;-52
2022/11/18 06:51:52;;;;;;;0.13;0.13;;;;;;;11.02;100.00;93855.34;4319329;32;20184;-52
2022/11/18 06:54:21;;;;;;;0.17;0.17;;;;;;;11.32;99.46;93854.03;4357912;32;20227;-54
2022/11/18 06:56:47;;;;;;;0.10;0.10;;;;;;;12.15;92.60;93855.28;4344967;32;20204;-49
2022/11/18 06:59:13;;;;;;;0.10;0.10;;;;;;;12.64;88.43;93849.72;4315778;32;20236;-53
2022/11/18 07:01:44;;;;;;;1.33;0.63;;;;;;;13.12;84.90;93851.25;4364150;32;20223;-52
2022/11/18 07:04:11;;;;;;;0.50;0.50;;;;;;;13.66;85.13;93862.03;4345346;32;20181;-51
2022/11/18 07:06:37;;;;;;;0.30;0.30;;;;;;;14.51;89.13;93864.87;4365421;32;26091;-51
2022/11/18 07:09:05;;;;;;;2.37;0.77;;;;;;;15.07;86.22;93867.75;4352249;32;20188;-52
2022/11/18 07:11:32;;;;;;;0.60;0.40;;;;;;;15.03;84.08;93869.59;4356940;32;20283;-53
2022/11/18 07:13:58;;;;;;;0.00;0.00;;;;;;;15.23;83.31;93872.94;4328801;32;20278;-61
2022/11/18 07:16:26;;;;;;;0.13;0.13;;;;;;;13.48;73.42;93881.41;4363427;32;20188;-59
2022/11/18 07:18:54;;;;;;;0.10;0.10;;;;;;;11.74;78.43;93885.59;4360399;32;20185;-59
2022/11/18 07:21:23;;;;;;;0.73;0.37;;;;;;;11.35;81.46;93905.69;4340293;32;20187;-59
2022/11/18 07:23:50;;;;;;;0.20;0.20;;;;;;;10.23;86.09;93896.31;4356265;32;20200;-59
2022/11/18 07:26:16;;;;;;;0.00;0.00;;;;;;;9.75;88.61;93907.44;4353412;32;20240;-59
2022/11/18 07:28:43;;;;;;;0.20;0.20;;;;;;;9.75;89.62;93902.13;4353120;32;20201;-59
2022/11/18 07:31:14;;;;;;;0.10;0.10;;;;;;;9.53;90.98;93908.50;4371804;32;20184;-60
2022/11/18 07:33:43;;;;;;;0.00;0.00;;;;;;;9.33;91.74;93907.38;4374275;32;20189;-59
2022/11/18 07:36:28;;;;;;;0.10;0.10;;;;;;;9.20;92.68;93909.16;4351676;32;20223;-58
2022/11/18 07:38:58;;;;;;;0.10;0.10;;;;;;;9.31;92.57;93914.88;4365502;32;20188;-58
2022/11/18 07:41:29;;;;;;;0.00;0.00;;;;;;;9.33;92.39;93906.59;4353143;32;20172;-58
2022/11/18 07:43:56;;;;;;;0.00;0.00;;;;;;;9.13;92.94;93919.47;4378825;32;20180;-58
2022/11/18 07:46:24;;;;;;;0.17;0.10;;;;;;;9.25;93.25;93924.06;4369397;32;20242;-58
2022/11/18 07:48:52;;;;;;;0.00;0.00;;;;;;;9.04;94.47;93925.87;4365044;32;20189;-60
2022/11/18 07:51:21;;;;;;;0.20;0.20;;;;;;;9.02;94.68;93922.75;4363655;32;20353;-59
2022/11/18 07:53:49;;;;;;;0.00;0.00;;;;;;;8.98;94.61;93921.84;4364128;32;20352;-58
2022/11/18 07:56:16;;;;;;;0.00;0.00;;;;;;;8.89;95.41;93925.31;4370503;32;20285;-60
2022/11/18 07:58:42;;;;;;;0.10;0.10;;;;;;;8.91;95.42;93919.72;4332566;32;20290;-58
2022/11/18 08:01:16;;;;;;;0.10;0.10;;;;;;;8.93;95.62;93930.75;4357391;32;20277;-59
2022/11/18 08:03:42;;;;;;;0.07;0.07;;;;;;;8.95;95.47;93929.31;4377072;32;20297;-58
2022/11/18 08:06:13;;;;;;;0.07;0.07;;;;;;;9.00;94.70;93925.72;4358421;32;20338;-58
2022/11/18 08:08:39;;;;;;;0.00;0.00;;;;;;;8.95;95.36;93937.25;4330525;32;20283;-58
2022/11/18 08:11:08;;;;;;;0.13;0.13;;;;;;;8.94;95.69;93943.63;4358445;32;20391;-59
2022/11/18 08:13:35;;;;;;;0.10;0.10;;;;;;;8.99;94.93;93944.56;4351855;32;20370;-58
2022/11/18 08:16:03;;;;;;;0.10;0.10;;;;;;;8.84;94.90;93946.63;4361269;32;20285;-59
2022/11/18 08:18:31;;;;;;;0.10;0.10;;;;;;;8.79;95.25;93941.50;4347061;32;20383;-58
2022/11/18 08:21:04;;;;;;;0.00;0.00;;;;;;;8.83;95.43;93957.53;4371435;32;20288;-58
2022/11/18 08:23:31;;;;;;;0.00;0.00;;;;;;;8.93;94.49;93939.47;4367740;32;20307;-59
2022/11/18 08:26:13;;;;;;;0.00;0.00;;;;;;;9.00;94.76;93946.09;4352453;32;20352;-59
2022/11/18 08:28:42;;;;;;;0.00;0.00;;;;;;;9.05;94.24;93949.37;4350488;32;20298;-58
2022/11/18 08:31:13;;;;;;;0.00;0.00;;;;;;;8.95;94.03;93947.81;4384174;32;20276;-58
2022/11/18 08:33:39;;;;;;;0.10;0.10;;;;;;;8.92;94.16;93955.66;4327814;32;20285;-60
2022/11/18 08:36:12;;;;;;;0.00;0.00;;;;;;;8.88;94.10;93950.22;4329159;32;20378;-59
2022/11/18 08:38:39;;;;;;;0.00;0.00;;;;;;;8.82;94.78;93956.75;4368569;32;20289;-59
2022/11/18 08:41:06;;;;;;;0.10;0.10;;;;;;;8.83;94.72;93958.31;4364499;32;20371;-58
2022/11/18 08:43:33;;;;;;;0.00;0.00;;;;;;;8.81;95.39;93960.47;4337421;32;20277;-59
2022/11/18 08:46:03;;;;;;;0.00;0.00;;;;;;;8.90;95.57;93961.25;4369611;32;20296;-59
2022/11/18 08:48:28;;;;;;;0.00;0.00;;;;;;;8.89;96.03;93964.97;4371765;32;20322;-59
2022/11/18 08:50:53;;;;;;;0.00;0.00;;;;;;;8.96;95.45;93965.25;4360374;32;20303;-59
2022/11/18 08:53:19;;;;;;;0.00;0.00;;;;;;;8.75;96.28;93972.31;4359844;32;20183;-58
2022/11/18 08:55:44;;;;;;;0.00;0.00;;;;;;;8.81;96.01;93970.28;4336121;32;20200;-59
2022/11/18 08:58:11;;;;;;;0.00;0.00;;;;;;;8.78;95.84;93971.69;4362430;32;20180;-58
2022/11/18 09:00:37;;;;;;;0.00;0.00;;;;;;;8.80;95.52;93974.78;4370417;32;20280;-59
2022/11/18 09:03:03;;;;;;;0.40;0.40;;;;;;;8.93;95.20;93979.13;4388712;32;20272;-58
2022/11/18 09:05:28;;;;;;;0.00;0.00;;;;;;;8.86;94.47;93973.53;4380851;32;20288;-59
2022/11/18 09:07:55;;;;;;;0.00;0.00;;;;;;;8.76;94.36;93983.66;4370599;32;20189;-59
2022/11/18 09:10:23;;;;;;;0.10;0.10;;;;;;;8.75;95.29;93988.16;4373612;32;20192;-58
2022/11/18 09:12:51;;;;;;;0.10;0.10;;;;;;;8.71;95.37;93979.34;4362774;32;20355;-59
2022/11/18 09:15:16;;;;;;;0.70;0.43;;;;;;;8.86;94.91;93994.69;4383988;32;20284;-59
2022/11/18 09:17:42;;;;;;;0.00;0.00;;;;;;;8.78;94.93;93992.84;4347629;32;20340;-59
2022/11/18 09:20:09;;;;;;;0.20;0.20;;;;;;;8.71;95.48;93997.84;4369745;32;20252;-58
2022/11/18 09:22:36;;;;;;;0.00;0.00;;;;;;;8.70;95.69;93990.22;4382088;32;20267;-58
2022/11/18 09:25:02;;;;;;;0.07;0.07;;;;;;;8.66;95.44;94000.66;4337005;32;20285;-59
2022/11/18 09:27:27;;;;;;;0.37;0.37;;;;;;;8.80;95.70;93998.59;4379966;32;20307;-58
2022/11/18 09:29:52;;;;;;;0.00;0.00;;;;;;;8.82;95.79;94004.34;4362400;32;20185;-58
2022/11/18 09:32:18;;;;;;;0.00;0.00;;;;;;;8.96;94.99;94010.22;4374718;32;20303;-59
2022/11/18 09:34:44;;;;;;;0.13;0.13;;;;;;;8.89;94.87;94009.16;4358445;32;20203;-58
2022/11/18 09:37:10;;;;;;;0.00;0.00;;;;;;;8.67;95.95;94010.13;4382434;32;20180;-58
2022/11/18 09:39:37;;;;;;;0.17;0.17;;;;;;;8.78;95.49;94013.22;4357668;32;20204;-59
2022/11/18 09:42:44;;;;;;;0.10;0.10;;;;;;;8.73;95.90;94018.69;4374355;32;20367;-58
2022/11/18 09:45:27;;;;;;;0.10;0.10;;;;;;;8.71;95.66;94023.50;4290286;33;20295;-58
2022/11/18 09:48:11;;;;;;;0.73;0.73;;;;;;;8.72;96.25;94033.78;4269068;33;20284;-59
2022/11/18 09:50:41;;;;;;;0.00;0.00;;;;;;;8.61;97.84;94033.28;4289259;33;20431;-59
2022/11/18 09:53:26;;;;;;;0.40;0.40;;;;;;;8.55;97.92;94028.47;4282372;33;20291;-59
2022/11/18 09:55:57;;;;;;;0.10;0.10;;;;;;;8.56;96.88;94040.59;4298573;32;20280;-59
2022/11/18 09:58:43;;;;;;;0.10;0.10;;;;;;;8.49;97.73;94040.31;4364493;32;20359;-58
2022/11/18 10:01:13;;;;;;;0.00;0.00;;;;;;;8.37;98.21;94046.19;4371729;32;20322;-59
2022/11/18 10:03:40;;;;;;;0.00;0.00;;;;;;;8.50;98.01;94047.16;4370821;32;20296;-59
2022/11/18 10:06:09;;;;;;;0.07;0.07;;;;;;;8.37;98.63;94042.78;4375545;32;20326;-58
2022/11/18 10:08:57;;;;;;;0.63;0.40;;;;;;;8.43;98.35;94050.25;4373121;32;20368;-59
2022/11/18 10:11:26;;;;;;;0.07;0.07;;;;;;;8.39;98.50;94043.25;4371315;32;20268;-58
2022/11/18 10:14:26;;;;;;;0.00;0.00;;;;;;;8.53;98.25;94044.62;4376603;32;20284;-58
2022/11/18 10:17:11;;;;;;;0.00;0.00;;;;;;;8.48;97.45;94054.59;4369801;32;20293;-59
2022/11/18 10:20:01;;;;;;;0.00;0.00;;;;;;;8.38;97.19;94054.91;4375772;32;20292;-59
2022/11/18 10:22:46;;;;;;;0.00;0.00;;;;;;;8.32;96.88;94061.38;4376801;32;20319;-59
2022/11/18 10:25:14;;;;;;;0.00;0.00;;;;;;;8.26;97.17;94056.28;4355305;32;20332;-58
2022/11/18 10:27:42;;;;;;;0.30;0.23;;;;;;;8.12;97.92;94055.63;4340198;32;20281;-59
2022/11/18 10:30:18;;;;;;;0.87;0.20;;;;;;;8.21;97.74;94048.50;4348029;32;20290;-58
2022/11/18 10:33:18;;;;;;;0.87;0.30;;;;;;;8.20;97.93;94049.56;4371134;32;20284;-59
2022/11/18 10:35:44;;;;;;;0.00;0.00;;;;;;;8.13;98.46;94049.25;4354090;32;20299;-61
2022/11/18 10:38:22;;;;;;;0.00;0.00;;;;;;;8.28;97.80;94056.75;4375849;32;20292;-58
2022/11/18 10:41:01;;;;;;;0.10;0.10;;;;;;;8.31;97.64;94051.94;4379191;32;20227;-58
2022/11/18 10:43:45;;;;;;;0.00;0.00;;;;;;;8.37;97.88;94048.84;4374793;32;20354;-58
2022/11/18 10:46:34;;;;;;;0.00;0.00;;;;;;;8.45;97.36;94048.06;4373016;32;20296;-58
2022/11/18 10:49:16;;;;;;;0.00;0.00;;;;;;;8.36;97.76;94044.62;4366236;32;20291;-58
2022/11/18 10:52:11;;;;;;;0.00;0.00;;;;;;;8.40;97.44;94048.22;4330018;32;20387;-59
2022/11/18 10:54:38;;;;;;;0.00;0.00;;;;;;;8.20;98.60;94043.50;4368212;32;20357;-58
2022/11/18 10:57:17;;;;;;;0.00;0.00;;;;;;;8.12;98.70;94047.69;4350316;32;20297;-59
2022/11/18 10:59:54;;;;;;;0.20;0.20;;;;;;;7.97;99.11;94045.50;4345776;32;20279;-59
2022/11/18 11:02:32;;;;;;;0.00;0.00;;;;;;;8.11;100.00;94050.63;4354355;32;20323;-58
2022/11/18 11:05:03;;;;;;;1.03;0.30;;;;;;;7.95;100.00;94063.50;4365081;32;20288;-59
2022/11/18 11:07:40;;;;;;;0.10;0.10;;;;;;;8.01;100.00;94072.84;4364904;32;20328;-58
2022/11/18 11:10:12;;;;;;;0.00;0.00;;;;;;;8.19;100.00;94061.22;4357144;32;20272;-58
2022/11/18 11:12:45;;;;;;;0.27;0.27;;;;;;;8.08;100.00;94067.12;4369060;32;20352;-59
2022/11/18 11:15:42;;;;;;;0.00;0.00;;;;;;;8.13;100.00;94051.88;4370297;32;20283;-58
2022/11/18 11:21:26;;;;;;;0.00;0.00;;;;;;;8.10;100.00;94051.75;4356011;32;20358;-59
2022/11/18 11:23:54;;;;;;;0.13;0.13;;;;;;;8.36;99.97;94052.56;4269966;32;20294;-59
2022/11/18 11:26:53;;;;;;;0.00;0.00;;;;;;;8.36;100.00;94049.16;4250320;32;20325;-59
2022/11/18 11:29:42;;;;;;;0.00;0.00;;;;;;;8.34;99.80;94046.03;4345613;32;20325;-58
2022/11/18 11:32:21;;;;;;;0.00;0.00;;;;;;;8.34;100.00;94048.69;4384079;32;20314;-58
2022/11/18 11:35:10;;;;;;;0.03;0.03;;;;;;;8.44;100.00;94051.81;4376482;32;20367;-59
2022/11/18 11:37:56;;;;;;;0.10;0.10;;;;;;;8.44;99.17;94056.31;4379063;32;20288;-58
2022/11/18 11:40:53;;;;;;;0.30;0.30;;;;;;;8.43;99.98;94054.75;4369263;32;20277;-59
2022/11/18 11:43:41;;;;;;;0.37;0.37;;;;;;;8.40;100.00;94056.16;4367431;32;20307;-58
2022/11/18 11:46:31;;;;;;;0.10;0.10;;;;;;;8.34;100.00;94062.66;4362497;32;20285;-59
2022/11/18 11:49:18;;;;;;;0.13;0.13;;;;;;;8.49;100.00;94049.00;4365095;32;20328;-59
2022/11/18 11:51:46;;;;;;;0.10;0.10;;;;;;;8.54;100.00;94056.75;4384382;32;20280;-58
2022/11/18 11:54:33;;;;;;;0.00;0.00;;;;;;;8.44;100.00;94054.44;4380759;32;20268;-58
2022/11/18 11:57:14;;;;;;;0.10;0.10;;;;;;;8.58;100.00;94057.69;4379159;32;20324;-59
2022/11/18 12:00:11;;;;;;;1.23;0.50;;;;;;;8.57;100.00;94076.50;4377059;32;20288;-59
2022/11/18 12:03:02;;;;;;;0.10;0.10;;;;;;;8.51;99.20;94069.84;4370550;32;20327;-58
2022/11/18 12:05:39;;;;;;;0.10;0.10;;;;;;;8.50;99.36;94066.44;4380529;32;20283;-59
2022/11/18 12:08:28;;;;;;;0.00;0.00;;;;;;;8.49;99.85;94069.38;4369179;32;20378;-58
2022/11/18 12:11:16;;;;;;;0.10;0.10;;;;;;;8.37;99.84;94071.84;4380079;32;20292;-59
2022/11/18 12:14:09;;;;;;;0.10;0.10;;;;;;;8.48;98.82;94067.81;4369252;32;20306;-58